createdAt,value
2019-06-20T00:01:42.133Z,20.27
2019-06-20T00:04:11.078Z,20.83
2019-06-20T00:06:40.012Z,23.90
2019-06-20T00:09:09.063Z,26.10
2019-06-20T00:11:38.106Z,27.10
2019-06-20T00:14:07.284Z,29.40
2019-06-20T00:16:36.150Z,28.50
2019-06-20T00:19:05.177Z,25.17
2019-06-20T00:21:34.097Z,26.50
2019-06-20T00:24:03.193Z,23.40
2019-06-20T00:26:32.086Z,26.40
2019-06-20T00:29:00.997Z,28.03
2019-06-20T00:31:30.086Z,32.20
2019-06-20T00:33:59.036Z,33.37
2019-06-20T00:36:27.968Z,37.20
2019-06-20T00:38:56.937Z,33.43
2019-06-20T00:41:25.822Z,32.93
2019-06-20T00:43:54.697Z,32.10
2019-06-20T00:46:23.662Z,33.20
2019-06-20T00:48:52.555Z,32.10
2019-06-20T00:51:21.669Z,33.13
2019-06-20T00:53:50.608Z,32.00
2019-06-20T00:56:19.694Z,30.03
2019-06-20T00:58:48.780Z,34.80
2019-06-20T01:01:17.773Z,30.30
2019-06-20T01:03:46.745Z,36.53
2019-06-20T01:06:15.769Z,33.37
2019-06-20T01:08:44.818Z,34.73
2019-06-20T01:11:13.829Z,33.70
2019-06-20T01:13:42.850Z,39.57
2019-06-20T01:16:11.882Z,34.07
2019-06-20T01:18:40.865Z,35.30
2019-06-20T01:21:09.874Z,35.53
2019-06-20T01:23:38.886Z,35.67
2019-06-20T01:26:07.888Z,38.50
2019-06-20T01:28:36.749Z,39.77
2019-06-20T01:31:05.863Z,36.57
2019-06-20T01:33:34.962Z,36.30
2019-06-20T01:36:04.036Z,35.63
2019-06-20T01:38:33.076Z,38.40
2019-06-20T01:41:05.833Z,37.73
2019-06-20T01:43:46.672Z,35.97
2019-06-20T01:46:03.692Z,32.90
2019-06-20T01:48:32.737Z,34.23
2019-06-20T01:51:01.726Z,29.83
2019-06-20T01:53:30.814Z,34.33
2019-06-20T01:55:59.772Z,32.50
2019-06-20T01:58:29.044Z,30.60
2019-06-20T02:00:58.080Z,31.60
2019-06-20T02:03:27.239Z,31.87
2019-06-20T02:05:56.332Z,33.10
2019-06-20T02:08:25.375Z,34.87
2019-06-20T02:10:54.529Z,31.97
2019-06-20T02:13:23.630Z,31.87
2019-06-20T02:15:52.693Z,31.73
2019-06-20T02:18:21.761Z,35.40
2019-06-20T02:20:52.986Z,36.40
2019-06-20T02:23:22.422Z,37.07
2019-06-20T02:25:51.503Z,35.50
2019-06-20T02:28:20.777Z,34.60
2019-06-20T02:30:50.077Z,37.30
2019-06-20T02:33:19.219Z,36.13
2019-06-20T02:35:48.298Z,36.27
2019-06-20T02:38:17.952Z,35.47
2019-06-20T02:40:47.059Z,37.00
2019-06-20T02:43:16.028Z,31.40
2019-06-20T02:45:45.077Z,30.60
2019-06-20T02:48:14.043Z,30.73
2019-06-20T02:50:43.218Z,30.97
2019-06-20T02:53:12.267Z,32.17
2019-06-20T02:55:41.505Z,27.23
2019-06-20T02:58:10.543Z,31.20
2019-06-20T03:00:59.048Z,28.93
2019-06-20T03:03:29.640Z,30.70
2019-06-20T03:05:58.801Z,31.50
2019-06-20T03:08:28.554Z,27.00
2019-06-20T03:10:57.617Z,27.10
2019-06-20T03:13:26.729Z,25.83
2019-06-20T03:15:55.946Z,30.30
2019-06-20T03:18:25.046Z,27.87
2019-06-20T03:20:54.269Z,28.47
2019-06-20T03:23:23.385Z,32.63
2019-06-20T03:25:52.422Z,29.80
2019-06-20T03:28:21.631Z,28.07
2019-06-20T03:30:50.918Z,27.13
2019-06-20T03:33:20.191Z,27.33
2019-06-20T03:35:49.307Z,28.80
2019-06-20T03:38:18.553Z,25.20
2019-06-20T03:40:47.690Z,27.60
2019-06-20T03:43:16.876Z,32.57
2019-06-20T03:45:46.007Z,26.47
2019-06-20T03:48:14.971Z,34.60
2019-06-20T03:50:44.041Z,33.77
2019-06-20T03:53:13.107Z,27.97
2019-06-20T03:55:42.159Z,29.33
2019-06-20T03:58:11.231Z,33.63
2019-06-20T04:00:40.323Z,31.20
2019-06-20T04:03:09.493Z,31.03
2019-06-20T04:05:38.644Z,29.83
2019-06-20T04:08:07.946Z,30.90
2019-06-20T04:10:37.293Z,31.13
2019-06-20T04:13:06.387Z,34.60
2019-06-20T04:15:35.376Z,32.77
2019-06-20T04:18:04.480Z,35.73
2019-06-20T04:20:33.576Z,36.00
2019-06-20T04:23:02.631Z,36.00
2019-06-20T04:25:32.143Z,33.60
2019-06-20T04:28:01.205Z,37.07
2019-06-20T04:30:30.324Z,37.50
2019-06-20T04:32:59.385Z,37.70
2019-06-20T04:35:28.457Z,32.27
2019-06-20T04:37:57.528Z,38.40
2019-06-20T04:40:26.565Z,37.23
2019-06-20T04:42:55.617Z,35.67
2019-06-20T04:45:43.815Z,38.27
2019-06-20T04:48:12.970Z,36.17
2019-06-20T04:50:42.018Z,39.70
2019-06-20T04:53:11.015Z,40.50
2019-06-20T04:55:40.744Z,40.10
2019-06-20T04:58:09.823Z,42.50
2019-06-20T05:00:38.848Z,42.30
2019-06-20T05:03:07.842Z,40.03
2019-06-20T05:05:37.096Z,36.50
2019-06-20T05:08:06.207Z,40.80
2019-06-20T05:10:35.325Z,38.90
2019-06-20T05:13:04.489Z,42.97
2019-06-20T05:15:33.598Z,41.33
2019-06-20T05:18:02.661Z,41.50
2019-06-20T05:20:36.984Z,35.47
2019-06-20T05:23:06.231Z,38.40
2019-06-20T05:25:35.730Z,37.53
2019-06-20T05:28:04.828Z,36.37
2019-06-20T05:30:33.875Z,36.50
2019-06-20T05:33:02.964Z,37.47
2019-06-20T05:35:32.035Z,33.70
2019-06-20T05:38:01.133Z,35.07
2019-06-20T05:40:30.203Z,33.73
2019-06-20T05:42:59.351Z,32.30
2019-06-20T05:45:28.436Z,29.20
2019-06-20T05:47:57.510Z,27.80
2019-06-20T05:50:26.549Z,25.03
2019-06-20T05:52:55.546Z,23.93
2019-06-20T05:55:44.042Z,23.43
2019-06-20T05:58:13.894Z,22.43
2019-06-20T06:00:42.968Z,19.10
2019-06-20T06:03:13.786Z,19.77
2019-06-20T06:05:42.770Z,19.37
2019-06-20T06:08:11.832Z,19.47
2019-06-20T06:10:41.350Z,18.97
2019-06-20T06:13:11.082Z,18.80
2019-06-20T06:15:40.419Z,19.40
2019-06-20T06:18:09.519Z,17.03
2019-06-20T06:20:38.626Z,17.10
2019-06-20T06:23:07.725Z,18.50
2019-06-20T06:25:37.655Z,17.77
2019-06-20T06:28:12.480Z,17.90
2019-06-20T06:30:48.116Z,15.43
2019-06-20T06:33:18.086Z,16.60
2019-06-20T06:35:47.962Z,17.27
2019-06-20T06:38:37.746Z,18.30
2019-06-20T06:41:07.730Z,18.30
2019-06-20T06:43:41.740Z,20.50
2019-06-20T06:46:07.651Z,19.97
2019-06-20T06:48:37.355Z,19.70
2019-06-20T06:51:06.498Z,18.80
2019-06-20T06:53:35.745Z,19.37
2019-06-20T06:56:25.340Z,23.53
2019-06-20T06:58:55.021Z,22.40
2019-06-20T07:04:06.949Z,21.20
2019-06-20T07:06:36.098Z,22.47
2019-06-20T07:09:24.281Z,22.20
2019-06-20T07:11:53.357Z,22.03
2019-06-20T07:14:22.632Z,20.73
2019-06-20T07:17:00.157Z,22.37
2019-06-20T07:19:22.504Z,24.20
2019-06-20T07:21:51.651Z,22.20
2019-06-20T07:24:20.751Z,22.17
2019-06-20T07:26:50.049Z,23.23
2019-06-20T07:29:19.107Z,21.67
2019-06-20T07:31:48.194Z,25.27
2019-06-20T07:34:17.254Z,25.67
2019-06-20T07:36:48.021Z,24.80
2019-06-20T07:39:17.017Z,25.90
2019-06-20T07:41:46.058Z,27.53
2019-06-20T07:44:15.210Z,23.83
2019-06-20T07:46:44.259Z,23.77
2019-06-20T07:49:32.563Z,22.60
2019-06-20T07:52:01.769Z,24.73
2019-06-20T07:54:30.954Z,23.93
2019-06-20T07:57:00.025Z,20.40
2019-06-20T07:59:29.062Z,22.80
2019-06-20T08:01:58.355Z,19.60
2019-06-20T08:04:27.397Z,21.00
2019-06-20T08:06:56.489Z,20.37
2019-06-20T08:09:40.604Z,20.93
2019-06-20T08:11:56.515Z,19.57
2019-06-20T08:14:25.561Z,19.17
2019-06-20T08:16:54.698Z,19.43
2019-06-20T08:19:23.850Z,18.90
2019-06-20T08:21:52.898Z,17.33
2019-06-20T08:24:21.941Z,19.40
2019-06-20T08:26:51.042Z,17.57
2019-06-20T08:29:21.315Z,18.90
2019-06-20T08:31:50.881Z,17.20
2019-06-20T08:34:20.034Z,18.53
2019-06-20T08:36:49.252Z,18.47
2019-06-20T08:39:18.372Z,18.17
2019-06-20T08:41:47.538Z,18.87
2019-06-20T08:44:16.620Z,20.53
2019-06-20T08:46:45.712Z,19.40
2019-06-20T08:49:37.345Z,18.63
2019-06-20T08:52:06.189Z,18.00
2019-06-20T08:54:35.167Z,19.57
2019-06-20T08:57:05.714Z,18.93
2019-06-20T08:59:34.969Z,18.97
2019-06-20T09:04:33.566Z,17.73
2019-06-20T09:09:31.880Z,19.77
2019-06-20T09:12:02.325Z,19.23
2019-06-20T09:14:31.622Z,21.27
2019-06-20T09:17:00.880Z,19.80
2019-06-20T09:19:29.923Z,18.30
2019-06-20T09:22:00.491Z,18.97
2019-06-20T09:24:29.805Z,19.13
2019-06-20T09:26:59.373Z,17.17
2019-06-20T09:29:40.842Z,17.10
2019-06-20T09:32:00.027Z,17.67
2019-06-20T09:34:29.216Z,16.13
2019-06-20T09:36:59.309Z,15.63
2019-06-20T09:39:28.689Z,15.40
2019-06-20T09:41:58.876Z,15.97
2019-06-20T09:44:28.020Z,15.33
2019-06-20T09:46:58.108Z,13.97
2019-06-20T09:49:27.378Z,12.77
2019-06-20T09:51:56.662Z,13.60
2019-06-20T09:54:26.153Z,12.80
2019-06-20T09:56:56.935Z,13.63
2019-06-20T09:59:27.775Z,13.00
2019-06-20T10:01:58.789Z,13.10
2019-06-20T10:04:27.644Z,12.47
2019-06-20T10:06:56.709Z,11.30
2019-06-20T10:09:25.779Z,11.20
2019-06-20T10:11:56.117Z,9.47
2019-06-20T10:14:25.563Z,10.00
2019-06-20T10:16:55.606Z,8.67
2019-06-20T10:19:25.438Z,6.90
2019-06-20T10:21:54.539Z,5.37
2019-06-20T10:24:23.601Z,3.80
2019-06-20T10:26:53.344Z,2.97
2019-06-20T10:29:22.824Z,2.50
2019-06-20T10:31:53.132Z,2.40
2019-06-20T10:34:22.581Z,2.30
2019-06-20T10:36:52.372Z,1.90
2019-06-20T10:39:21.670Z,1.57
2019-06-20T10:41:52.277Z,2.40
2019-06-20T10:44:21.617Z,2.07
2019-06-20T10:46:51.427Z,1.97
2019-06-20T10:49:20.586Z,2.00
2019-06-20T10:51:49.659Z,1.70
2019-06-20T10:54:18.898Z,3.03
2019-06-20T10:56:48.866Z,2.23
2019-06-20T10:59:17.873Z,2.50
2019-06-20T11:04:23.209Z,2.43
2019-06-20T11:06:52.469Z,3.00
2019-06-20T11:09:21.798Z,2.93
2019-06-20T11:11:50.906Z,2.23
2019-06-20T11:14:19.953Z,2.30
2019-06-20T11:16:49.359Z,2.37
2019-06-20T11:19:18.744Z,2.70
2019-06-20T11:21:47.905Z,3.30
2019-06-20T11:24:28.470Z,4.40
2019-06-20T11:26:57.664Z,2.43
2019-06-20T11:29:26.852Z,3.03
2019-06-20T11:31:56.028Z,3.03
2019-06-20T11:34:25.228Z,3.60
2019-06-20T11:36:54.405Z,3.00
2019-06-20T11:39:23.634Z,2.53
2019-06-20T11:41:52.774Z,2.70
2019-06-20T11:44:21.881Z,2.93
2019-06-20T11:46:51.116Z,3.13
2019-06-20T11:49:20.188Z,2.97
2019-06-20T11:51:49.295Z,2.47
2019-06-20T11:54:18.398Z,2.50
2019-06-20T11:56:47.514Z,2.50
2019-06-20T11:59:16.600Z,2.10
2019-06-20T12:01:47.234Z,2.67
2019-06-20T12:04:16.784Z,2.20
2019-06-20T12:06:47.133Z,2.03
2019-06-20T12:09:16.758Z,2.20
2019-06-20T12:11:46.769Z,2.57
2019-06-20T12:14:15.895Z,2.60
2019-06-20T12:16:44.990Z,2.70
2019-06-20T12:19:14.642Z,1.97
2019-06-20T12:21:44.759Z,2.00
2019-06-20T12:24:14.047Z,2.30
2019-06-20T12:26:44.351Z,2.03
2019-06-20T12:29:13.470Z,2.27
2019-06-20T12:31:43.066Z,2.47
2019-06-20T12:34:12.324Z,2.70
2019-06-20T12:36:42.515Z,2.30
2019-06-20T12:39:30.930Z,2.60
2019-06-20T12:42:00.186Z,2.47
2019-06-20T12:44:29.338Z,2.40
2019-06-20T12:46:58.473Z,2.30
2019-06-20T12:49:27.455Z,2.30
2019-06-20T12:51:56.605Z,2.70
2019-06-20T12:54:25.718Z,2.20
2019-06-20T12:56:55.059Z,2.90
2019-06-20T12:59:24.162Z,2.10
2019-06-20T13:01:53.313Z,2.70
2019-06-20T13:04:22.425Z,2.43
2019-06-20T13:06:52.028Z,2.40
2019-06-20T13:09:41.086Z,2.30
2019-06-20T13:12:11.051Z,3.20
2019-06-20T13:14:40.896Z,2.70
2019-06-20T13:17:10.355Z,3.10
2019-06-20T13:19:40.309Z,3.27
2019-06-20T13:22:09.631Z,3.00
2019-06-20T13:24:39.720Z,3.77
2019-06-20T13:27:09.488Z,3.90
2019-06-20T13:29:39.149Z,3.20
2019-06-20T13:32:08.694Z,3.50
2019-06-20T13:34:39.881Z,2.90
2019-06-20T13:37:09.629Z,3.27
2019-06-20T13:39:40.056Z,3.20
2019-06-20T13:42:09.698Z,4.40
2019-06-20T13:44:39.612Z,2.93
2019-06-20T13:47:09.623Z,3.70
2019-06-20T13:49:39.816Z,3.53
2019-06-20T13:52:09.595Z,3.50
2019-06-20T13:54:39.636Z,3.30
2019-06-20T13:57:09.590Z,3.60
2019-06-20T13:59:38.621Z,3.90
2019-06-20T14:02:08.022Z,2.93
2019-06-20T14:04:37.049Z,3.67
2019-06-20T14:07:06.125Z,3.60
2019-06-20T14:09:35.213Z,3.47
2019-06-20T14:12:04.541Z,3.40
2019-06-20T14:14:33.599Z,3.77
2019-06-20T14:17:02.865Z,3.40
2019-06-20T14:19:31.999Z,2.73
2019-06-20T14:22:01.102Z,2.63
2019-06-20T14:24:30.309Z,3.50
2019-06-20T14:26:59.397Z,3.10
2019-06-20T14:29:28.542Z,4.23
2019-06-20T14:31:57.642Z,3.17
2019-06-20T14:34:26.776Z,3.90
2019-06-20T14:36:55.853Z,3.03
2019-06-20T14:39:25.046Z,3.90
2019-06-20T14:41:55.236Z,3.83
2019-06-20T14:44:24.574Z,3.57
2019-06-20T14:46:54.240Z,3.27
2019-06-20T14:49:23.682Z,4.03
2019-06-20T14:51:54.954Z,4.13
2019-06-20T14:54:44.614Z,3.33
2019-06-20T14:57:14.196Z,4.37
2019-06-20T15:00:02.655Z,5.70
2019-06-20T15:02:38.589Z,4.57
2019-06-20T15:05:22.063Z,3.90
2019-06-20T15:07:52.093Z,5.50
2019-06-20T15:10:21.942Z,6.00
2019-06-20T15:12:52.216Z,6.50
2019-06-20T15:15:22.070Z,7.63
2019-06-20T15:17:53.615Z,6.30
2019-06-20T15:20:21.908Z,7.30
2019-06-20T15:22:52.280Z,7.33
2019-06-20T15:25:21.940Z,8.33
2019-06-20T15:27:52.910Z,8.70
2019-06-20T15:30:21.992Z,9.70
2019-06-20T15:33:04.395Z,8.67
2019-06-20T15:35:22.482Z,8.90
2019-06-20T15:37:52.006Z,8.40
2019-06-20T15:40:22.276Z,9.50
2019-06-20T15:42:53.011Z,8.80
2019-06-20T15:45:22.527Z,7.20
2019-06-20T15:47:52.029Z,8.13
2019-06-20T15:50:21.192Z,7.73
2019-06-20T15:52:50.310Z,7.70
2019-06-20T15:55:21.248Z,7.30
2019-06-20T15:57:53.935Z,7.83
2019-06-20T16:00:22.070Z,7.47
2019-06-20T16:02:51.161Z,6.90
2019-06-20T16:05:20.663Z,6.67
2019-06-20T16:07:49.770Z,7.70
2019-06-20T16:10:18.828Z,7.70
2019-06-20T16:12:47.926Z,6.50
2019-06-20T16:15:22.251Z,6.03
2019-06-20T16:17:51.337Z,7.27
2019-06-20T16:20:20.978Z,8.53
2019-06-20T16:22:50.107Z,7.67
2019-06-20T16:25:19.223Z,7.60
2019-06-20T16:27:48.283Z,7.37
2019-06-20T16:30:19.412Z,8.00
2019-06-20T16:32:48.481Z,8.70
2019-06-20T16:35:18.511Z,7.30
2019-06-20T16:37:47.553Z,7.67
2019-06-20T16:40:18.107Z,7.80
2019-06-20T16:42:47.233Z,7.80
2019-06-20T16:45:16.470Z,8.07
2019-06-20T16:47:45.741Z,7.10
2019-06-20T16:50:15.050Z,7.00
2019-06-20T16:52:44.170Z,8.03
2019-06-20T16:55:13.292Z,11.90
2019-06-20T16:57:42.345Z,7.60
2019-06-20T17:00:12.107Z,8.00
2019-06-20T17:02:41.328Z,9.60
2019-06-20T17:05:10.921Z,8.43
2019-06-20T17:07:40.024Z,8.30
2019-06-20T17:10:09.457Z,7.63
2019-06-20T17:12:38.665Z,6.30
2019-06-20T17:15:09.309Z,7.17
2019-06-20T17:17:38.440Z,6.50
2019-06-20T17:20:08.530Z,6.23
2019-06-20T17:22:37.807Z,5.13
2019-06-20T17:25:07.299Z,4.97
2019-06-20T17:27:36.362Z,5.10
2019-06-20T17:30:06.847Z,5.90
2019-06-20T17:32:35.968Z,5.97
2019-06-20T17:35:06.190Z,5.60
2019-06-20T17:37:35.284Z,5.40
2019-06-20T17:40:05.331Z,4.30
2019-06-20T17:42:34.461Z,4.87
2019-06-20T17:45:03.735Z,4.43
2019-06-20T17:47:32.836Z,5.10
2019-06-20T17:50:03.402Z,4.10
2019-06-20T17:52:32.636Z,4.40
2019-06-20T17:55:01.835Z,4.00
2019-06-20T18:00:07.691Z,3.23
2019-06-20T18:02:36.863Z,3.90
2019-06-20T18:05:06.724Z,3.27
2019-06-20T18:07:35.918Z,3.50
2019-06-20T18:10:06.846Z,2.93
2019-06-20T18:12:36.024Z,3.63
2019-06-20T18:15:05.810Z,3.90
2019-06-20T18:17:34.944Z,4.50
2019-06-20T18:20:06.140Z,3.63
2019-06-20T18:22:35.215Z,4.10
2019-06-20T18:25:05.314Z,3.73
2019-06-20T18:27:34.494Z,4.80
2019-06-20T18:30:04.112Z,4.20
2019-06-20T18:32:33.182Z,4.10
2019-06-20T18:35:02.743Z,4.57
2019-06-20T18:37:32.086Z,5.87
2019-06-20T18:40:01.205Z,3.37
2019-06-20T18:42:30.312Z,5.57
2019-06-20T18:44:59.401Z,3.57
2019-06-20T18:47:28.593Z,3.90
2019-06-20T18:49:57.643Z,3.23
2019-06-20T18:52:26.739Z,4.00
2019-06-20T18:54:55.842Z,3.07
2019-06-20T18:57:25.011Z,3.47
2019-06-20T18:59:54.092Z,4.03
2019-06-20T19:02:23.212Z,3.80
2019-06-20T19:04:52.242Z,4.00
2019-06-20T19:07:21.202Z,3.30
2019-06-20T19:09:51.257Z,5.10
2019-06-20T19:12:21.063Z,3.30
2019-06-20T19:14:50.454Z,3.10
2019-06-20T19:17:19.589Z,3.53
2019-06-20T19:19:50.495Z,3.70
2019-06-20T19:22:19.659Z,3.10
2019-06-20T19:24:48.694Z,4.30
2019-06-20T19:27:17.811Z,3.53
2019-06-20T19:29:49.612Z,3.70
2019-06-20T19:32:17.727Z,4.33
2019-06-20T19:35:01.051Z,3.30
2019-06-20T19:37:17.508Z,4.23
2019-06-20T19:39:46.632Z,3.23
2019-06-20T19:42:15.769Z,3.80
2019-06-20T19:44:44.770Z,3.57
2019-06-20T19:47:13.905Z,3.50
2019-06-20T19:49:43.270Z,4.10
2019-06-20T19:52:12.385Z,3.97
2019-06-20T19:54:41.454Z,3.87
2019-06-20T19:57:10.783Z,3.53
2019-06-20T19:59:39.910Z,2.97
2019-06-20T20:02:09.225Z,4.30
2019-06-20T20:04:38.281Z,5.73
2019-06-20T20:07:07.521Z,5.50
2019-06-20T20:09:36.607Z,5.80
2019-06-20T20:12:05.646Z,5.30
2019-06-20T20:14:34.714Z,6.00
2019-06-20T20:17:03.822Z,4.27
2019-06-20T20:19:32.965Z,5.47
2019-06-20T20:22:02.051Z,3.20
2019-06-20T20:24:31.113Z,3.77
2019-06-20T20:27:00.094Z,3.30
2019-06-20T20:29:29.211Z,3.67
2019-06-20T20:31:58.238Z,3.00
2019-06-20T20:34:27.265Z,3.83
2019-06-20T20:36:56.226Z,3.50
2019-06-20T20:39:25.457Z,3.23
2019-06-20T20:41:54.457Z,3.70
2019-06-20T20:44:23.446Z,3.33
2019-06-20T20:49:30.828Z,4.63
2019-06-20T20:51:59.983Z,4.03
2019-06-20T20:54:29.062Z,3.97
2019-06-20T20:56:58.298Z,4.10
2019-06-20T20:59:27.435Z,3.60
2019-06-20T21:01:56.579Z,2.90
2019-06-20T21:04:25.696Z,4.03
2019-06-20T21:06:54.797Z,3.10
2019-06-20T21:09:24.105Z,3.10
2019-06-20T21:11:53.926Z,3.53
2019-06-20T21:14:23.172Z,3.00
2019-06-20T21:16:52.335Z,3.30
2019-06-20T21:19:21.438Z,2.80
2019-06-20T21:21:50.509Z,3.23
2019-06-20T21:24:19.659Z,2.83
2019-06-20T21:26:50.214Z,3.00
2019-06-20T21:29:19.553Z,4.00
2019-06-20T21:31:48.635Z,3.97
2019-06-20T21:34:17.848Z,3.80
2019-06-20T21:36:46.910Z,3.27
2019-06-20T21:39:15.879Z,3.67
2019-06-20T21:41:44.847Z,4.33
2019-06-20T21:44:13.862Z,4.20
2019-06-20T21:46:43.019Z,4.60
2019-06-20T21:49:11.996Z,3.83
2019-06-20T21:51:44.528Z,4.60
2019-06-20T21:54:11.839Z,4.70
2019-06-20T21:56:40.888Z,3.80
2019-06-20T21:59:10.116Z,3.40
2019-06-20T22:01:39.865Z,3.93
2019-06-20T22:04:08.977Z,4.10
2019-06-20T22:06:37.981Z,4.00
2019-06-20T22:09:08.694Z,3.40
2019-06-20T22:11:37.848Z,3.30
2019-06-20T22:14:06.953Z,4.00
2019-06-20T22:16:36.181Z,4.30
2019-06-20T22:19:05.539Z,2.70
2019-06-20T22:21:34.613Z,3.70
2019-06-20T22:24:03.879Z,2.93
2019-06-20T22:26:33.014Z,4.03
2019-06-20T22:29:02.226Z,3.90
2019-06-20T22:31:31.336Z,3.67
2019-06-20T22:34:00.438Z,3.50
2019-06-20T22:36:39.748Z,3.90
2019-06-20T22:39:00.426Z,3.63
2019-06-20T22:41:29.456Z,3.20
2019-06-20T22:43:58.603Z,3.70
2019-06-20T22:46:27.619Z,3.20
2019-06-20T22:48:56.965Z,3.50
2019-06-20T22:51:26.088Z,3.60
2019-06-20T22:53:55.165Z,3.17
2019-06-20T22:56:24.230Z,4.13
2019-06-20T22:58:53.273Z,3.40
2019-06-20T23:01:22.355Z,3.77
2019-06-20T23:03:51.477Z,4.10
2019-06-20T23:06:20.509Z,4.87
2019-06-20T23:08:49.614Z,3.80
2019-06-20T23:11:18.645Z,3.27
2019-06-20T23:13:47.751Z,3.90
2019-06-20T23:16:16.766Z,4.10
2019-06-20T23:18:45.812Z,4.77
2019-06-20T23:21:14.880Z,3.37
2019-06-20T23:23:43.795Z,4.03
2019-06-20T23:26:12.926Z,3.83
2019-06-20T23:28:41.950Z,3.73
2019-06-20T23:31:10.983Z,3.73
2019-06-20T23:33:40.026Z,4.37
2019-06-20T23:36:08.995Z,4.20
2019-06-20T23:38:38.092Z,4.63
2019-06-20T23:41:07.134Z,3.83
2019-06-20T23:43:36.368Z,3.70
2019-06-20T23:46:05.571Z,4.63
2019-06-20T23:48:34.621Z,4.80
2019-06-20T23:51:03.830Z,3.53
2019-06-20T23:53:33.117Z,3.97
2019-06-20T23:56:02.165Z,3.43
2019-06-20T23:58:31.142Z,3.87
